Time;durP1;ratioP1;P1;durP2;ratioP2;P2;SDS_P1;SDS_P2;PMS_P1;PMS_P2;Temp;Humidity;BMP_temperature;BMP_pressure;BME280_temperature;BME280_humidity;BME280_pressure;Samples;Min_cycle;Max_cycle;Signal;HPM_P1;HPM_P2
2022/12/31 00:01:15;;;;;;;8.25;4.22;;;11.50;99.90;;;;;;5094251;28;20529;-82
2022/12/31 00:03:41;;;;;;;5.22;3.25;;;11.60;99.90;;;;;;5093258;28;20044;-82
2022/12/31 00:06:22;;;;;;;8.45;3.65;;;11.70;99.90;;;;;;5094127;28;20040;-81
2022/12/31 00:08:49;;;;;;;5.82;4.00;;;11.50;99.90;;;;;;5094490;28;20047;-82
2022/12/31 00:11:15;;;;;;;9.48;4.28;;;11.50;99.90;;;;;;5094140;28;20052;-82
2022/12/31 00:13:42;;;;;;;9.75;4.18;;;11.50;99.90;;;;;;5094088;28;20084;-82
2022/12/31 00:16:11;;;;;;;7.03;3.88;;;11.50;99.90;;;;;;5092899;28;20044;-82
2022/12/31 00:18:37;;;;;;;8.70;3.72;;;11.40;99.90;;;;;;5091951;28;20403;-81
2022/12/31 00:21:09;;;;;;;9.90;3.90;;;11.50;99.90;;;;;;5094018;28;20119;-82
2022/12/31 00:23:35;;;;;;;7.88;5.20;;;11.50;99.90;;;;;;5093902;28;20047;-81
2022/12/31 00:26:04;;;;;;;12.35;7.57;;;11.40;99.90;;;;;;5093892;28;20127;-82
2022/12/31 00:28:29;;;;;;;11.93;6.68;;;11.40;99.90;;;;;;5093858;28;20119;-82
2022/12/31 00:30:55;;;;;;;13.32;4.65;;;12.10;99.90;;;;;;5093974;28;20091;-82
2022/12/31 00:33:21;;;;;;;7.90;3.92;;;11.50;99.90;;;;;;5093912;28;20040;-82
2022/12/31 00:35:46;;;;;;;6.47;3.58;;;11.40;99.90;;;;;;5092954;28;20051;-82
2022/12/31 00:38:12;;;;;;;7.90;3.88;;;11.40;99.90;;;;;;5093784;28;20476;-82
2022/12/31 00:40:37;;;;;;;8.40;4.20;;;11.40;99.90;;;;;;5093802;28;20127;-82
2022/12/31 00:43:03;;;;;;;9.35;4.63;;;11.50;99.90;;;;;;5093687;28;20047;-82
2022/12/31 00:45:28;;;;;;;8.75;4.80;;;11.40;99.90;;;;;;5093765;28;20040;-82
2022/12/31 00:47:54;;;;;;;6.30;4.35;;;11.40;99.90;;;;;;5093719;28;20036;-82
2022/12/31 00:50:20;;;;;;;10.32;5.05;;;11.40;99.90;;;;;;5094198;28;20048;-82
2022/12/31 00:52:45;;;;;;;11.35;5.72;;;11.40;99.90;;;;;;5093699;28;20484;-82
2022/12/31 00:55:11;;;;;;;11.82;5.78;;;11.40;99.90;;;;;;5093848;28;20048;-82
2022/12/31 00:57:36;;;;;;;12.13;6.18;;;11.40;99.90;;;;;;5093661;28;20522;-82
2022/12/31 01:00:03;;;;;;;11.13;6.25;;;11.40;99.90;;;;;;5093560;28;20040;-82
2022/12/31 01:02:28;;;;;;;11.38;5.63;;;11.40;99.90;;;;;;5093770;28;20056;-83
2022/12/31 01:04:54;;;;;;;12.43;7.00;;;11.40;99.90;;;;;;5093521;28;20066;-82
2022/12/31 01:07:19;;;;;;;10.05;6.43;;;11.50;99.90;;;;;;5093491;28;20551;-82
2022/12/31 01:09:45;;;;;;;9.95;5.90;;;11.40;99.90;;;;;;5094005;28;20055;-82
2022/12/31 01:12:11;;;;;;;9.77;6.07;;;11.40;99.90;;;;;;5092343;28;20105;-82
2022/12/31 01:14:36;;;;;;;10.60;6.25;;;11.40;99.90;;;;;;5093393;28;20036;-82
2022/12/31 01:17:02;;;;;;;11.15;6.00;;;11.40;99.90;;;;;;5092253;28;20044;-82
2022/12/31 01:19:28;;;;;;;10.90;6.22;;;11.40;99.90;;;;;;5093951;28;20044;-82
2022/12/31 01:21:55;;;;;;;10.60;6.40;;;11.40;99.90;;;;;;5093367;28;20051;-82
2022/12/31 01:24:20;;;;;;;10.77;5.95;;;11.40;99.90;;;;;;5093317;28;20085;-82
2022/12/31 01:26:46;;;;;;;9.93;5.38;;;11.40;99.90;;;;;;5093332;28;20052;-82
2022/12/31 01:29:13;;;;;;;9.13;5.07;;;11.40;99.90;;;;;;5092259;28;20395;-82
2022/12/31 01:31:39;;;;;;;11.10;5.22;;;11.40;99.90;;;;;;5097848;28;20047;-83
2022/12/31 01:34:06;;;;;;;10.57;7.70;;;11.90;99.90;;;;;;5096059;28;20040;-82
2022/12/31 01:36:33;;;;;;;9.88;4.88;;;11.40;99.90;;;;;;5096906;28;20048;-82
2022/12/31 01:39:00;;;;;;;7.97;5.30;;;11.40;99.90;;;;;;5096957;28;20052;-82
2022/12/31 01:41:32;;;;;;;10.73;4.72;;;11.60;99.90;;;;;;5097029;28;20121;-82
2022/12/31 01:44:22;;;;;;;6.57;4.35;;;11.30;99.90;;;;;;5096033;28;20090;-83
2022/12/31 01:46:53;;;;;;;10.30;4.53;;;11.30;99.90;;;;;;5096550;28;20044;-82
2022/12/31 01:49:37;;;;;;;6.85;4.38;;;11.30;99.90;;;;;;5096709;28;20055;-82
2022/12/31 01:52:19;;;;;;;6.82;4.13;;;11.30;99.90;;;;;;5096753;28;20036;-82
2022/12/31 01:54:55;;;;;;;7.63;3.78;;;11.30;99.90;;;;;;5096734;28;20032;-83
2022/12/31 01:57:23;;;;;;;7.07;3.58;;;11.30;99.90;;;;;;5096555;28;20048;-82
2022/12/31 01:59:50;;;;;;;5.22;3.08;;;11.80;99.90;;;;;;5078834;28;20044;-82
2022/12/31 02:02:15;;;;;;;5.57;3.15;;;11.30;99.90;;;;;;5096545;28;20476;-82
2022/12/31 02:04:41;;;;;;;7.00;3.30;;;11.30;99.90;;;;;;5096394;28;20096;-82
2022/12/31 02:07:08;;;;;;;6.60;2.85;;;11.30;99.90;;;;;;5096477;28;20071;-83
2022/12/31 02:09:38;;;;;;;5.60;2.97;;;11.20;99.90;;;;;;5096498;28;20511;-82
2022/12/31 02:12:04;;;;;;;5.43;2.90;;;11.20;99.90;;;;;;5096270;28;20598;-82
2022/12/31 02:14:33;;;;;;;6.30;2.88;;;11.20;99.90;;;;;;5096109;28;20050;-82
2022/12/31 02:17:17;;;;;;;8.20;2.88;;;11.20;99.90;;;;;;5078459;28;20048;-82
2022/12/31 02:19:54;;;;;;;4.50;2.80;;;11.20;99.90;;;;;;5096231;28;20055;-83
2022/12/31 02:22:46;;;;;;;4.35;2.70;;;11.20;99.90;;;;;;5096219;28;20055;-82
2022/12/31 02:25:42;;;;;;;5.05;2.65;;;11.20;99.90;;;;;;5096233;28;20040;-82
2022/12/31 02:28:29;;;;;;;5.35;2.50;;;11.10;99.90;;;;;;5094905;28;20040;-83
2022/12/31 02:31:11;;;;;;;4.95;2.22;;;11.10;99.90;;;;;;5096221;28;20051;-82
2022/12/31 02:33:51;;;;;;;3.47;2.00;;;11.10;99.90;;;;;;5094824;28;20055;-82
2022/12/31 02:36:22;;;;;;;3.33;1.90;;;11.10;99.90;;;;;;5095927;28;20044;-83
2022/12/31 02:38:49;;;;;;;5.15;1.95;;;11.10;99.90;;;;;;5096447;28;20439;-82
2022/12/31 02:44:19;;;;;;;2.15;1.65;;;11.00;99.90;;;;;;5095707;28;20123;-83
2022/12/31 02:47:12;;;;;;;3.28;1.40;;;11.00;99.90;;;;;;5095840;28;20406;-82
2022/12/31 02:49:53;;;;;;;3.00;1.70;;;11.00;99.90;;;;;;5095986;28;20048;-83
2022/12/31 02:52:37;;;;;;;3.88;1.70;;;11.00;99.90;;;;;;5095771;28;20090;-83
2022/12/31 02:55:17;;;;;;;4.13;1.88;;;11.00;99.90;;;;;;5095435;28;20058;-83
2022/12/31 02:57:57;;;;;;;4.30;2.15;;;10.90;99.90;;;;;;5095544;28;20172;-82
2022/12/31 03:03:09;;;;;;;3.30;1.55;;;10.90;99.90;;;;;;5095252;28;20048;-83
2022/12/31 03:05:41;;;;;;;2.38;1.40;;;10.90;99.90;;;;;;5093987;28;20078;-83
2022/12/31 03:08:07;;;;;;;5.30;1.85;;;10.90;99.90;;;;;;5094236;28;20529;-83
2022/12/31 03:10:33;;;;;;;7.55;1.92;;;11.40;99.90;;;;;;5095160;28;20048;-83
2022/12/31 03:12:59;;;;;;;3.87;1.80;;;11.00;99.90;;;;;;5095165;28;20484;-82
2022/12/31 03:15:30;;;;;;;5.03;1.83;;;10.90;99.90;;;;;;5093940;28;20331;-83
2022/12/31 03:18:17;;;;;;;3.25;1.92;;;10.80;99.90;;;;;;5094057;28;20104;-83
2022/12/31 03:23:40;;;;;;;3.72;2.10;;;11.40;99.90;;;;;;5094981;28;20093;-83
2022/12/31 03:26:09;;;;;;;4.53;2.03;;;10.90;99.90;;;;;;5095014;28;20048;-83
2022/12/31 03:28:37;;;;;;;3.28;2.03;;;10.80;99.90;;;;;;5094878;28;20044;-82
2022/12/31 03:31:03;;;;;;;5.28;2.30;;;10.80;99.90;;;;;;5094883;28;20052;-83
2022/12/31 03:33:37;;;;;;;3.30;2.03;;;10.80;99.90;;;;;;5095128;28;20050;-82
2022/12/31 03:36:09;;;;;;;4.25;2.30;;;10.90;99.90;;;;;;5095020;28;20067;-82
2022/12/31 03:38:35;;;;;;;4.78;2.20;;;10.70;99.90;;;;;;5094895;28;20054;-82
2022/12/31 03:41:00;;;;;;;4.85;2.30;;;10.80;99.90;;;;;;5094551;28;20139;-83
2022/12/31 03:43:26;;;;;;;5.05;2.35;;;11.40;99.90;;;;;;5093595;28;20048;-82
2022/12/31 03:45:53;;;;;;;4.65;2.22;;;10.80;99.90;;;;;;5093884;28;20094;-82
2022/12/31 03:48:21;;;;;;;3.28;2.25;;;10.80;99.90;;;;;;5094548;28;20511;-82
2022/12/31 03:50:47;;;;;;;4.57;2.30;;;10.80;99.90;;;;;;5094475;28;20090;-82
2022/12/31 03:53:13;;;;;;;4.68;2.58;;;10.70;99.90;;;;;;5094162;28;20447;-82
2022/12/31 03:55:39;;;;;;;4.13;2.20;;;10.80;99.90;;;;;;5094256;28;20044;-82
2022/12/31 03:58:05;;;;;;;5.43;2.60;;;10.80;99.90;;;;;;5094396;28;20055;-82
2022/12/31 04:00:30;;;;;;;4.05;2.60;;;10.80;99.90;;;;;;5094216;28;20044;-82
2022/12/31 04:02:56;;;;;;;4.07;2.72;;;10.80;99.90;;;;;;5093036;28;20381;-83
2022/12/31 04:05:22;;;;;;;6.60;3.15;;;10.90;99.90;;;;;;5094238;28;20048;-82
2022/12/31 04:07:48;;;;;;;4.93;3.07;;;10.90;99.90;;;;;;5094352;28;20048;-82
2022/12/31 04:10:15;;;;;;;4.40;3.22;;;10.80;99.90;;;;;;5092968;28;20516;-83
2022/12/31 04:12:41;;;;;;;5.93;3.40;;;10.80;99.90;;;;;;5093396;28;20051;-82
2022/12/31 04:15:13;;;;;;;6.95;3.80;;;10.80;99.90;;;;;;5094128;28;20044;-82
2022/12/31 04:17:39;;;;;;;6.82;3.42;;;10.80;99.90;;;;;;5094464;28;20055;-82
2022/12/31 04:20:05;;;;;;;4.63;2.97;;;10.90;99.90;;;;;;5094061;28;20464;-82
2022/12/31 04:22:31;;;;;;;4.60;3.20;;;10.80;99.90;;;;;;5093891;28;20136;-83
2022/12/31 04:24:56;;;;;;;7.53;3.00;;;10.80;99.90;;;;;;5093634;28;20463;-82
2022/12/31 04:27:22;;;;;;;4.88;2.85;;;10.80;99.90;;;;;;5094017;28;20040;-82
2022/12/31 04:29:48;;;;;;;5.50;2.65;;;10.90;99.90;;;;;;5092923;28;20044;-82
2022/12/31 04:32:13;;;;;;;5.05;2.25;;;10.90;99.90;;;;;;5093721;28;20048;-82
2022/12/31 04:34:39;;;;;;;3.88;2.10;;;11.10;99.90;;;;;;5094117;28;20486;-82
2022/12/31 04:37:04;;;;;;;3.22;1.95;;;10.80;99.90;;;;;;5094077;28;20048;-83
2022/12/31 04:39:30;;;;;;;3.65;2.00;;;10.90;99.90;;;;;;5092715;28;20048;-82
2022/12/31 04:41:56;;;;;;;3.25;2.15;;;10.80;99.90;;;;;;5094396;28;20128;-82
2022/12/31 04:44:21;;;;;;;4.88;2.00;;;10.80;99.90;;;;;;5092876;28;20062;-82
2022/12/31 04:46:47;;;;;;;2.85;1.90;;;11.10;99.90;;;;;;5092645;28;20036;-82
2022/12/31 04:49:12;;;;;;;3.78;1.90;;;10.80;99.90;;;;;;5093790;28;20093;-83
2022/12/31 04:51:38;;;;;;;3.45;1.70;;;10.80;99.90;;;;;;5092527;28;20044;-82
2022/12/31 04:54:04;;;;;;;4.73;1.70;;;10.70;99.90;;;;;;5093666;28;20097;-82
2022/12/31 04:56:31;;;;;;;3.88;1.90;;;10.70;99.90;;;;;;5093742;28;20501;-82
2022/12/31 04:58:57;;;;;;;3.63;1.55;;;10.80;99.90;;;;;;5093693;28;20044;-82
2022/12/31 05:01:23;;;;;;;2.80;1.70;;;10.70;99.90;;;;;;5092260;28;20055;-82
2022/12/31 05:03:50;;;;;;;3.38;1.90;;;10.70;99.90;;;;;;5092499;28;20052;-82
2022/12/31 05:06:21;;;;;;;2.92;1.40;;;11.20;99.90;;;;;;5096984;28;20048;-83
2022/12/31 05:08:48;;;;;;;3.47;1.55;;;10.70;99.90;;;;;;5096645;28;20036;-83
2022/12/31 05:11:14;;;;;;;6.55;2.35;;;10.60;99.90;;;;;;5097477;28;20044;-82
2022/12/31 05:13:39;;;;;;;2.55;1.40;;;10.60;99.90;;;;;;5097564;28;20131;-83
2022/12/31 05:16:05;;;;;;;2.45;1.75;;;10.60;99.90;;;;;;5097431;28;20048;-82
2022/12/31 05:18:32;;;;;;;4.07;2.03;;;10.60;99.90;;;;;;5097441;28;20136;-82
2022/12/31 05:20:58;;;;;;;3.22;1.67;;;10.60;99.90;;;;;;5097543;28;20040;-83
2022/12/31 05:23:24;;;;;;;4.97;2.70;;;10.60;99.90;;;;;;5096141;28;20649;-82
2022/12/31 05:25:50;;;;;;;6.13;2.73;;;10.60;99.90;;;;;;5097907;28;20430;-82
2022/12/31 05:28:15;;;;;;;9.00;2.88;;;10.60;99.90;;;;;;5097277;28;20040;-82
2022/12/31 05:30:42;;;;;;;6.20;3.13;;;10.80;99.90;;;;;;5097248;28;20472;-82
2022/12/31 05:33:08;;;;;;;5.30;3.60;;;10.60;99.90;;;;;;5096006;28;20036;-83
2022/12/31 05:35:34;;;;;;;5.53;4.20;;;10.60;99.90;;;;;;5096249;28;20040;-83
2022/12/31 05:38:00;;;;;;;7.90;4.55;;;10.60;99.90;;;;;;5096956;28;20048;-83
2022/12/31 05:40:26;;;;;;;7.93;4.88;;;10.90;99.90;;;;;;5097045;28;20495;-82
2022/12/31 05:42:52;;;;;;;9.67;5.13;;;10.70;99.90;;;;;;5095760;28;20040;-83
2022/12/31 05:45:18;;;;;;;7.38;4.85;;;10.70;99.90;;;;;;5096909;28;20537;-82
2022/12/31 05:47:45;;;;;;;6.05;4.70;;;10.70;99.90;;;;;;5079233;28;20131;-82
2022/12/31 05:50:14;;;;;;;6.78;4.65;;;10.60;99.90;;;;;;5078978;28;20136;-82
2022/12/31 05:52:44;;;;;;;11.57;5.18;;;10.70;99.90;;;;;;5096773;28;20052;-82
2022/12/31 05:55:10;;;;;;;6.88;4.35;;;10.80;99.90;;;;;;5096417;28;20511;-82
2022/12/31 05:57:36;;;;;;;6.13;4.20;;;10.70;99.90;;;;;;5095579;28;20093;-83
2022/12/31 06:00:07;;;;;;;6.63;4.00;;;10.70;99.90;;;;;;5096735;28;20043;-82
2022/12/31 06:02:33;;;;;;;7.32;4.10;;;10.80;99.90;;;;;;5096325;28;20055;-81
2022/12/31 06:04:58;;;;;;;6.50;3.92;;;10.80;99.90;;;;;;5096506;28;20036;-83
2022/12/31 06:07:24;;;;;;;5.63;3.45;;;10.80;99.90;;;;;;5096595;28;20051;-86
2022/12/31 06:09:49;;;;;;;5.57;3.72;;;10.80;99.90;;;;;;5096459;28;20101;-82
2022/12/31 06:12:15;;;;;;;5.38;4.00;;;10.80;99.90;;;;;;5096172;28;20095;-83
2022/12/31 06:14:41;;;;;;;5.80;3.70;;;10.80;99.90;;;;;;5096517;28;20048;-82
2022/12/31 06:17:06;;;;;;;11.43;3.85;;;10.80;99.90;;;;;;5093967;28;20441;-83
2022/12/31 06:19:32;;;;;;;4.25;3.47;;;10.80;99.90;;;;;;5096028;28;20502;-83
2022/12/31 06:21:57;;;;;;;5.72;3.15;;;10.80;99.90;;;;;;5096064;28;20085;-84
2022/12/31 06:24:23;;;;;;;6.07;3.50;;;10.90;99.90;;;;;;5095968;28;20044;-83
2022/12/31 06:26:48;;;;;;;4.95;3.33;;;10.90;99.90;;;;;;5094655;28;20119;-82
2022/12/31 06:29:14;;;;;;;6.07;3.67;;;10.80;99.90;;;;;;5095790;28;20032;-81
2022/12/31 06:31:40;;;;;;;5.97;3.75;;;10.80;99.90;;;;;;5095975;28;20108;-84
2022/12/31 06:34:05;;;;;;;5.65;4.15;;;10.80;99.90;;;;;;5095874;28;20040;-83
2022/12/31 06:36:31;;;;;;;5.50;3.83;;;11.30;99.90;;;;;;5095898;28;20396;-83
2022/12/31 06:38:57;;;;;;;5.47;4.05;;;10.70;99.90;;;;;;5094341;28;20499;-82
2022/12/31 06:41:22;;;;;;;5.90;4.85;;;10.80;99.90;;;;;;5094998;28;20044;-82
2022/12/31 06:43:48;;;;;;;6.53;4.25;;;10.80;99.90;;;;;;5095740;28;20040;-83
2022/12/31 06:46:16;;;;;;;6.30;4.32;;;10.90;99.90;;;;;;5094361;28;20035;-83
2022/12/31 06:48:43;;;;;;;8.52;4.25;;;10.80;99.90;;;;;;5095615;28;20054;-82
2022/12/31 06:51:18;;;;;;;7.90;4.20;;;10.80;99.90;;;;;;5094240;28;20048;-83
2022/12/31 06:53:48;;;;;;;5.85;3.70;;;10.90;99.90;;;;;;5095887;28;20044;-83
2022/12/31 06:56:17;;;;;;;5.60;3.40;;;11.10;99.90;;;;;;5078016;28;20044;-83
2022/12/31 06:58:46;;;;;;;6.90;3.65;;;10.80;99.90;;;;;;5094640;28;20108;-83
2022/12/31 07:01:49;;;;;;;4.88;3.53;;;10.80;99.90;;;;;;5095157;28;20063;-85
2022/12/31 07:04:44;;;;;;;4.45;3.20;;;10.70;99.90;;;;;;5094093;28;20047;-80
2022/12/31 07:07:28;;;;;;;4.38;2.95;;;10.70;99.90;;;;;;5081454;28;20440;-82
2022/12/31 07:10:26;;;;;;;4.15;2.97;;;10.70;99.90;;;;;;5095346;28;20458;-83
2022/12/31 07:13:14;;;;;;;4.75;3.40;;;10.70;99.90;;;;;;5095268;28;20193;-81
2022/12/31 07:16:05;;;;;;;3.60;2.70;;;10.70;99.90;;;;;;5095276;28;20040;-82
2022/12/31 07:18:45;;;;;;;4.45;3.08;;;10.70;99.90;;;;;;5095951;28;20458;-82
2022/12/31 07:21:14;;;;;;;3.70;2.72;;;10.80;99.90;;;;;;5077447;28;20052;-83
2022/12/31 07:23:41;;;;;;;4.25;3.15;;;10.70;99.90;;;;;;5095056;28;20091;-85
2022/12/31 07:26:33;;;;;;;3.30;2.60;;;10.70;99.90;;;;;;5093921;28;20498;-82
2022/12/31 07:29:45;;;;;;;5.10;3.42;;;10.70;99.90;;;;;;5094551;28;20414;-80
2022/12/31 07:32:19;;;;;;;6.38;3.40;;;10.80;99.90;;;;;;5078808;28;20088;-81
2022/12/31 07:34:52;;;;;;;5.15;3.28;;;10.80;99.90;;;;;;5093821;28;20047;-83
2022/12/31 07:37:39;;;;;;;5.47;3.30;;;10.80;99.90;;;;;;5094774;28;20113;-85
2022/12/31 07:40:21;;;;;;;5.30;3.50;;;10.90;99.90;;;;;;5093835;28;20047;-84
2022/12/31 07:43:24;;;;;;;4.63;3.33;;;10.90;99.90;;;;;;5094483;28;20098;-81
2022/12/31 07:46:06;;;;;;;4.72;3.53;;;10.90;99.90;;;;;;5094693;28;20051;-80
2022/12/31 07:48:31;;;;;;;5.57;3.80;;;10.90;99.90;;;;;;5094544;28;20491;-83
2022/12/31 07:50:57;;;;;;;6.30;3.83;;;10.90;99.90;;;;;;5093938;28;20044;-84
2022/12/31 07:53:24;;;;;;;7.53;3.78;;;10.90;99.90;;;;;;5094736;28;20144;-85
2022/12/31 07:56:01;;;;;;;11.60;5.65;;;10.90;99.90;;;;;;5093318;28;20497;-82
2022/12/31 07:59:03;;;;;;;7.63;4.30;;;10.90;99.90;;;;;;5093289;28;20044;-84
2022/12/31 08:01:48;;;;;;;5.80;3.92;;;11.00;99.90;;;;;;5093598;28;20052;-85
2022/12/31 08:04:44;;;;;;;6.07;4.13;;;10.90;99.90;;;;;;5093275;28;20052;-79
2022/12/31 08:07:44;;;;;;;5.07;3.53;;;11.00;99.90;;;;;;5094332;28;20089;-81
2022/12/31 08:10:39;;;;;;;7.00;4.13;;;11.00;99.90;;;;;;5094336;28;20044;-81
2022/12/31 08:13:09;;;;;;;6.43;3.90;;;11.00;99.90;;;;;;5093807;28;20059;-85
2022/12/31 08:15:39;;;;;;;7.03;3.83;;;11.00;99.90;;;;;;5094104;28;20051;-79
2022/12/31 08:18:06;;;;;;;4.90;3.78;;;11.00;99.90;;;;;;5094574;28;20119;-78
2022/12/31 08:20:33;;;;;;;;;;;11.10;99.90;;;;;;5094948;28;20044;-80
2022/12/31 08:23:32;;;;;;;4.75;3.47;;;11.20;99.90;;;;;;5095020;28;19920;-78
2022/12/31 08:26:22;;;;;;;6.53;3.50;;;11.10;99.90;;;;;;5083053;28;20060;-81
2022/12/31 08:29:52;;;;;;;4.57;3.70;;;11.20;99.90;;;;;;5093618;28;20040;-78
2022/12/31 08:32:47;;;;;;;6.05;3.65;;;11.20;99.90;;;;;;5031749;28;20496;-84
2022/12/31 08:35:49;;;;;;;5.43;3.45;;;11.50;99.90;;;;;;5042730;28;20044;-83
2022/12/31 08:38:30;;;;;;;6.63;3.42;;;11.30;99.90;;;;;;5088240;28;20048;-81
2022/12/31 08:41:19;;;;;;;5.07;3.83;;;11.40;99.90;;;;;;5091298;28;20049;-79
2022/12/31 08:44:09;;;;;;;6.60;3.60;;;11.40;99.90;;;;;;5091230;28;20051;-79
2022/12/31 08:46:47;;;;;;;8.70;3.95;;;11.50;99.90;;;;;;5093561;28;20058;-80
2022/12/31 08:49:13;;;;;;;4.22;3.45;;;11.60;99.90;;;;;;5093955;28;20048;-82
2022/12/31 08:51:40;;;;;;;6.70;4.15;;;11.60;99.90;;;;;;5075937;28;20066;-82
2022/12/31 08:54:08;;;;;;;6.68;4.15;;;11.60;99.90;;;;;;5093334;28;20048;-80
2022/12/31 08:56:42;;;;;;;7.57;3.63;;;11.60;99.90;;;;;;5093328;28;20093;-84
2022/12/31 08:59:33;;;;;;;5.78;4.00;;;11.70;99.90;;;;;;5092208;28;20491;-85
2022/12/31 09:02:19;;;;;;;5.50;4.13;;;11.70;99.90;;;;;;5093253;28;20056;-83
2022/12/31 09:05:03;;;;;;;4.57;3.35;;;11.90;99.90;;;;;;5073259;28;20075;-80
2022/12/31 09:08:07;;;;;;;5.32;3.95;;;11.80;99.90;;;;;;5073357;28;20047;-80
2022/12/31 09:10:45;;;;;;;5.13;3.40;;;11.90;99.90;;;;;;5041573;28;20057;-82
2022/12/31 09:13:38;;;;;;;5.57;3.63;;;11.90;99.90;;;;;;5073305;28;20044;-79
2022/12/31 09:16:16;;;;;;;4.57;3.28;;;12.00;99.90;;;;;;5087893;28;20098;-78
2022/12/31 09:18:42;;;;;;;5.05;2.90;;;12.00;99.90;;;;;;5092746;28;20040;-81
2022/12/31 09:21:10;;;;;;;3.95;2.70;;;12.10;99.90;;;;;;5093257;28;20036;-80
2022/12/31 09:23:36;;;;;;;3.72;2.85;;;12.10;99.90;;;;;;5092608;28;20055;-82
2022/12/31 09:26:17;;;;;;;5.20;2.80;;;12.10;99.90;;;;;;5092606;28;20039;-83
2022/12/31 09:29:03;;;;;;;4.65;2.80;;;12.20;99.90;;;;;;5093308;28;20107;-81
2022/12/31 09:31:55;;;;;;;4.88;2.53;;;12.20;99.90;;;;;;5098883;28;20044;-82
2022/12/31 09:34:25;;;;;;;3.30;2.20;;;12.20;99.90;;;;;;5093338;28;20052;-82
2022/12/31 09:36:58;;;;;;;5.70;3.47;;;12.20;99.90;;;;;;5092262;28;20097;-83
2022/12/31 09:39:31;;;;;;;4.00;2.85;;;12.40;99.90;;;;;;5090251;28;20051;-81
2022/12/31 09:42:18;;;;;;;4.85;1.92;;;12.30;99.90;;;;;;5100409;28;20122;-82
2022/12/31 09:45:13;;;;;;;2.90;1.60;;;12.30;99.90;;;;;;5093013;28;20074;-79
2022/12/31 09:47:52;;;;;;;3.50;2.25;;;12.30;99.90;;;;;;5093296;28;20047;-82
2022/12/31 09:50:51;;;;;;;6.05;2.90;;;12.30;99.90;;;;;;5093488;28;20044;-84
2022/12/31 09:53:38;;;;;;;3.83;2.33;;;12.30;99.90;;;;;;5083560;28;20059;-84
2022/12/31 09:56:38;;;;;;;1.92;1.58;;;12.30;99.90;;;;;;5079103;28;20080;-72
2022/12/31 09:59:33;;;;;;;2.10;1.48;;;12.30;99.90;;;;;;5096396;28;20035;-78
2022/12/31 10:02:21;;;;;;;2.30;1.60;;;12.40;99.90;;;;;;5096586;28;20090;-83
2022/12/31 10:05:11;;;;;;;2.65;1.20;;;12.40;99.90;;;;;;5075160;28;20393;-78
2022/12/31 10:08:05;;;;;;;1.65;1.40;;;12.40;99.90;;;;;;5094482;28;20059;-78
2022/12/31 10:10:41;;;;;;;2.55;1.42;;;12.40;99.90;;;;;;5097056;28;20055;-78
2022/12/31 10:13:42;;;;;;;2.78;1.35;;;12.40;99.90;;;;;;5096445;28;20368;-78
2022/12/31 10:16:46;;;;;;;2.38;1.80;;;12.50;99.90;;;;;;5096207;28;20101;-78
2022/12/31 10:19:11;;;;;;;2.95;1.70;;;12.50;99.90;;;;;;5013913;28;20490;-78
2022/12/31 10:22:01;;;;;;;2.15;1.52;;;12.60;99.90;;;;;;5013999;28;20132;-78
2022/12/31 10:25:04;;;;;;;2.97;2.00;;;12.60;99.90;;;;;;5064576;28;20500;-77
2022/12/31 10:27:59;;;;;;;5.60;2.92;;;12.60;99.90;;;;;;5050929;28;20067;-78
2022/12/31 10:30:32;;;;;;;2.05;1.60;;;12.70;99.90;;;;;;5096106;28;20048;-78
2022/12/31 10:33:14;;;;;;;3.10;2.00;;;12.80;99.90;;;;;;5095594;28;20400;-78
2022/12/31 10:36:37;;;;;;;4.75;3.35;;;12.80;99.90;;;;;;5096386;28;20055;-78
2022/12/31 10:39:18;;;;;;;2.83;2.10;;;12.80;99.90;;;;;;5065093;28;20091;-78
2022/12/31 10:42:11;;;;;;;3.72;1.73;;;12.80;99.90;;;;;;5096180;28;20113;-79
2022/12/31 10:45:31;;;;;;;2.55;2.25;;;12.80;99.90;;;;;;5096218;28;20044;-79
2022/12/31 10:47:59;;;;;;;;;;;12.80;99.90;;;;;;5014714;28;20103;-79
2022/12/31 10:50:33;;;;;;;;;;;12.90;99.90;;;;;;5014213;28;19921;-79
2022/12/31 10:53:31;;;;;;;4.25;2.83;;;12.90;99.90;;;;;;5057858;28;19919;-79
2022/12/31 10:56:25;;;;;;;5.35;2.28;;;12.90;99.90;;;;;;5086370;28;20051;-80
2022/12/31 10:59:13;;;;;;;4.00;3.05;;;12.90;99.90;;;;;;5093715;28;20083;-80
2022/12/31 11:02:20;;;;;;;7.17;4.20;;;13.00;99.90;;;;;;5093347;28;20047;-80
2022/12/31 11:05:22;;;;;;;5.88;2.50;;;12.90;99.90;;;;;;5093561;28;20334;-82
2022/12/31 11:08:12;;;;;;;6.38;4.50;;;13.00;99.90;;;;;;5094677;28;20105;-79
2022/12/31 11:10:47;;;;;;;8.27;4.78;;;13.00;99.90;;;;;;5095948;28;20130;-79
2022/12/31 11:13:45;;;;;;;9.55;6.57;;;13.10;99.90;;;;;;5095632;28;20051;-77
2022/12/31 11:16:31;;;;;;;2.90;1.93;;;13.10;99.90;;;;;;5095705;28;20044;-77
2022/12/31 11:19:28;;;;;;;4.63;2.00;;;13.00;99.90;;;;;;5095767;28;20446;-77
2022/12/31 11:22:31;;;;;;;2.85;2.08;;;13.10;99.90;;;;;;5095050;28;20044;-78
2022/12/31 11:25:32;;;;;;;3.80;2.35;;;13.10;99.90;;;;;;5032356;28;20069;-78
2022/12/31 11:28:19;;;;;;;5.47;3.00;;;13.10;99.90;;;;;;5094996;28;20090;-79
2022/12/31 11:30:59;;;;;;;4.40;2.78;;;13.10;99.90;;;;;;5094782;28;20040;-76
2022/12/31 11:33:54;;;;;;;5.18;2.50;;;13.00;99.90;;;;;;5094971;28;20079;-79
2022/12/31 11:36:43;;;;;;;3.78;2.65;;;13.10;99.90;;;;;;5095216;28;20043;-79
2022/12/31 11:39:23;;;;;;;5.85;3.90;;;13.10;99.90;;;;;;5095155;28;20032;-79
2022/12/31 11:41:55;;;;;;;9.48;6.50;;;13.10;99.90;;;;;;5095242;28;20047;-77
2022/12/31 11:44:45;;;;;;;13.32;9.27;;;13.10;99.90;;;;;;5095033;28;20080;-78
2022/12/31 11:47:35;;;;;;;20.27;12.57;;;13.10;99.90;;;;;;5094938;28;20048;-81
2022/12/31 11:50:28;;;;;;;15.30;10.27;;;13.10;99.90;;;;;;5094574;28;20051;-79
2022/12/31 11:53:08;;;;;;;11.20;6.78;;;13.10;99.90;;;;;;5095354;28;20048;-78
2022/12/31 11:56:07;;;;;;;5.82;4.35;;;13.10;99.90;;;;;;5094519;28;20440;-78
2022/12/31 11:58:33;;;;;;;6.85;4.40;;;13.20;99.90;;;;;;5080525;28;20062;-78
2022/12/31 12:01:10;;;;;;;7.30;5.93;;;13.20;99.90;;;;;;5094238;28;20052;-79
2022/12/31 12:03:41;;;;;;;12.60;9.63;;;13.10;99.90;;;;;;5094351;28;20135;-82
2022/12/31 12:06:13;;;;;;;28.40;21.05;;;13.20;99.90;;;;;;5093422;28;20040;-79
2022/12/31 12:08:39;;;;;;;42.13;30.58;;;13.20;99.90;;;;;;5094548;28;20039;-80
2022/12/31 12:11:12;;;;;;;40.67;32.40;;;13.20;99.90;;;;;;5094379;28;20043;-82
2022/12/31 12:13:37;;;;;;;30.80;25.77;;;13.30;99.90;;;;;;5093383;28;20126;-77
2022/12/31 12:16:07;;;;;;;21.80;16.17;;;13.30;99.90;;;;;;5094248;28;20080;-79
2022/12/31 12:18:39;;;;;;;9.80;5.90;;;13.30;99.90;;;;;;5094383;28;20508;-79
2022/12/31 12:21:21;;;;;;;12.10;6.47;;;13.30;99.90;;;;;;5094192;28;20044;-78
2022/12/31 12:24:00;;;;;;;8.18;3.83;;;13.30;99.90;;;;;;5094236;28;20047;-78
2022/12/31 12:26:41;;;;;;;7.78;4.30;;;13.30;99.90;;;;;;5094683;28;20036;-78
2022/12/31 12:29:11;;;;;;;5.28;4.03;;;13.30;99.90;;;;;;5093942;28;20040;-78
2022/12/31 12:31:37;;;;;;;6.45;3.55;;;13.30;99.90;;;;;;5094060;28;20048;-80
2022/12/31 12:34:04;;;;;;;9.02;4.43;;;13.30;99.90;;;;;;5093856;28;20044;-81
2022/12/31 12:36:30;;;;;;;5.53;4.05;;;13.40;99.90;;;;;;5094428;28;20052;-81
2022/12/31 12:39:04;;;;;;;6.03;2.65;;;13.40;99.90;;;;;;5093929;28;20047;-79
2022/12/31 12:41:30;;;;;;;6.68;2.55;;;13.40;99.90;;;;;;5094416;28;20052;-78
2022/12/31 12:44:05;;;;;;;6.50;3.27;;;13.40;99.90;;;;;;5093926;28;20123;-79
2022/12/31 12:46:34;;;;;;;3.15;2.30;;;13.40;99.90;;;;;;5093612;28;20046;-77
2022/12/31 12:49:02;;;;;;;4.47;2.22;;;13.40;99.90;;;;;;5093750;28;20392;-78
2022/12/31 12:51:47;;;;;;;5.65;2.50;;;13.40;99.90;;;;;;5093756;28;20055;-77
2022/12/31 12:54:36;;;;;;;6.13;3.05;;;13.50;99.90;;;;;;5093843;28;20051;-78
2022/12/31 12:57:18;;;;;;;6.65;3.25;;;13.40;99.90;;;;;;5093667;28;20055;-79
2022/12/31 13:00:28;;;;;;;8.10;3.97;;;13.40;99.90;;;;;;5093538;28;20361;-77
2022/12/31 13:03:10;;;;;;;8.73;3.70;;;13.40;99.90;;;;;;5031199;28;20403;-79
2022/12/31 13:06:16;;;;;;;5.28;3.70;;;13.40;99.90;;;;;;5031646;28;20461;-79
2022/12/31 13:08:48;;;;;;;5.95;3.63;;;13.40;99.90;;;;;;5083798;28;20060;-79
2022/12/31 13:11:37;;;;;;;4.18;2.97;;;13.40;99.90;;;;;;5093525;28;20044;-78
2022/12/31 13:14:22;;;;;;;4.88;2.80;;;13.50;99.90;;;;;;5093487;28;20040;-77
2022/12/31 13:17:10;;;;;;;5.10;2.75;;;13.40;99.90;;;;;;5093525;28;20036;-76
2022/12/31 13:19:40;;;;;;;5.90;3.33;;;13.40;99.90;;;;;;5092199;28;20051;-80
2022/12/31 13:22:28;;;;;;;3.97;3.10;;;13.40;99.90;;;;;;5093430;28;20048;-78
2022/12/31 13:25:21;;;;;;;5.00;2.50;;;13.40;99.90;;;;;;5092458;28;20051;-78
2022/12/31 13:27:50;;;;;;;4.07;2.10;;;13.30;99.90;;;;;;5097336;28;20047;-78
2022/12/31 13:30:22;;;;;;;2.75;2.30;;;13.30;99.90;;;;;;5097360;28;20126;-78
2022/12/31 13:33:13;;;;;;;4.30;2.42;;;13.30;99.90;;;;;;5097253;28;20040;-80
2022/12/31 13:35:46;;;;;;;5.88;3.45;;;13.30;99.90;;;;;;5097065;28;20048;-74
2022/12/31 13:38:20;;;;;;;10.68;6.93;;;13.30;99.90;;;;;;5097108;28;20079;-74